Time;durP1;ratioP1;P1;durP2;ratioP2;P2;SDS_P1;SDS_P2;PMS_P1;PMS_P2;Temp;Humidity;BMP_temperature;BMP_pressure;BME280_temperature;BME280_humidity;BME280_pressure;Samples;Min_cycle;Max_cycle;Signal;HPM_P1;HPM_P2
2023/12/06 00:01:49;;;;;;;50.83;32.05;;;1.40;96.20;;;;;;5070845;28;20037;-78
2023/12/06 00:04:15;;;;;;;52.38;31.42;;;1.50;96.20;;;;;;5055641;28;20119;-78
2023/12/06 00:06:41;;;;;;;55.45;33.30;;;1.50;96.20;;;;;;5056417;28;20044;-78
2023/12/06 00:09:06;;;;;;;57.13;34.17;;;1.60;96.20;;;;;;5072895;28;20036;-79
2023/12/06 00:11:32;;;;;;;49.92;29.92;;;1.60;96.20;;;;;;5072708;28;20044;-77
2023/12/06 00:13:57;;;;;;;47.85;30.35;;;1.60;96.30;;;;;;5072935;28;20370;-79
2023/12/06 00:16:23;;;;;;;47.10;30.67;;;1.60;96.20;;;;;;5056251;28;20076;-78
2023/12/06 00:18:49;;;;;;;49.42;30.77;;;1.60;96.20;;;;;;5055901;28;20029;-78
2023/12/06 00:21:15;;;;;;;49.33;30.17;;;1.60;96.30;;;;;;5052160;28;20443;-79
2023/12/06 00:23:41;;;;;;;45.72;29.55;;;1.60;96.30;;;;;;5052719;28;20041;-78
2023/12/06 00:26:07;;;;;;;42.17;27.80;;;1.60;96.30;;;;;;5086195;28;20144;-78
2023/12/06 00:28:33;;;;;;;42.45;27.48;;;1.60;96.30;;;;;;5039055;28;20046;-79
2023/12/06 00:30:58;;;;;;;43.88;28.35;;;1.60;96.30;;;;;;5072138;28;20040;-80
2023/12/06 00:33:24;;;;;;;39.65;26.15;;;1.60;96.30;;;;;;5072311;28;20048;-77
2023/12/06 00:35:50;;;;;;;39.83;26.08;;;1.70;96.30;;;;;;5039207;28;20404;-79
2023/12/06 00:38:16;;;;;;;35.42;25.65;;;1.70;96.30;;;;;;5054558;28;20039;-78
2023/12/06 00:40:44;;;;;;;37.83;25.95;;;1.70;96.30;;;;;;5035832;28;20037;-78
2023/12/06 00:43:10;;;;;;;38.42;25.88;;;1.80;96.30;;;;;;5035675;28;20036;-79
2023/12/06 00:45:35;;;;;;;37.25;25.65;;;1.70;96.30;;;;;;5036079;28;20397;-78
2023/12/06 00:48:01;;;;;;;35.67;24.45;;;1.80;96.20;;;;;;5052541;28;20037;-81
2023/12/06 00:50:27;;;;;;;36.25;25.92;;;1.80;96.30;;;;;;5070048;28;20040;-78
2023/12/06 00:52:52;;;;;;;41.67;25.67;;;1.80;96.20;;;;;;5072101;28;20044;-80
2023/12/06 00:55:18;;;;;;;37.97;26.30;;;1.80;96.20;;;;;;5054707;28;20133;-76
2023/12/06 00:57:44;;;;;;;34.05;24.58;;;1.80;96.30;;;;;;5072383;28;20048;-76
2023/12/06 01:00:10;;;;;;;37.78;25.40;;;1.80;96.30;;;;;;5055420;28;20041;-77
2023/12/06 01:02:37;;;;;;;35.80;24.25;;;1.80;96.30;;;;;;5072078;28;20072;-77
2023/12/06 01:05:04;;;;;;;33.25;23.67;;;1.80;96.30;;;;;;5071380;28;20513;-80
2023/12/06 01:07:30;;;;;;;35.15;24.85;;;1.80;96.30;;;;;;5072034;28;20045;-79
2023/12/06 01:09:56;;;;;;;34.92;23.50;;;1.80;96.30;;;;;;5071861;28;20036;-78
2023/12/06 01:12:21;;;;;;;31.95;22.83;;;1.80;96.30;;;;;;5054141;28;20033;-77
2023/12/06 01:14:47;;;;;;;36.40;24.58;;;1.90;96.30;;;;;;5055253;28;20086;-79
2023/12/06 01:17:13;;;;;;;37.15;24.52;;;1.90;96.30;;;;;;5055166;28;20036;-79
2023/12/06 01:19:38;;;;;;;35.75;24.42;;;1.90;96.30;;;;;;5061330;28;20123;-77
2023/12/06 01:22:04;;;;;;;35.03;23.83;;;1.90;96.30;;;;;;5051754;28;20563;-80
2023/12/06 01:24:30;;;;;;;33.75;23.25;;;1.90;96.30;;;;;;5051673;28;20405;-78
2023/12/06 01:26:56;;;;;;;33.95;23.73;;;1.90;96.30;;;;;;5068442;28;20099;-78
2023/12/06 01:29:21;;;;;;;31.88;22.63;;;1.90;96.20;;;;;;5047545;28;20040;-77
2023/12/06 01:31:47;;;;;;;33.80;23.48;;;1.90;96.20;;;;;;5037870;28;20044;-80
2023/12/06 01:34:13;;;;;;;38.92;25.05;;;1.90;96.30;;;;;;5055164;28;20040;-80
2023/12/06 01:36:39;;;;;;;33.72;24.23;;;1.90;96.30;;;;;;5071555;28;20120;-79
2023/12/06 01:39:04;;;;;;;36.40;25.13;;;1.90;96.30;;;;;;5054687;28;20036;-78
2023/12/06 01:41:30;;;;;;;34.60;24.25;;;1.90;96.30;;;;;;5038245;28;20079;-77
2023/12/06 01:43:56;;;;;;;31.38;23.35;;;2.00;96.30;;;;;;5071596;28;20041;-78
2023/12/06 01:46:21;;;;;;;35.63;25.08;;;1.90;96.30;;;;;;5052064;28;20108;-79
2023/12/06 01:48:48;;;;;;;35.60;23.67;;;1.90;96.30;;;;;;5070781;28;20033;-77
2023/12/06 01:51:16;;;;;;;36.63;24.27;;;1.90;96.30;;;;;;5071379;28;20123;-79
2023/12/06 01:53:42;;;;;;;35.70;24.05;;;1.90;96.30;;;;;;5071441;28;20036;-78
2023/12/06 01:56:10;;;;;;;37.05;25.20;;;1.90;96.30;;;;;;5054707;28;20037;-77
2023/12/06 01:58:37;;;;;;;38.30;25.33;;;1.90;96.30;;;;;;5054873;28;20066;-78
2023/12/06 02:01:05;;;;;;;36.10;25.00;;;1.90;96.30;;;;;;5070473;28;20421;-78
2023/12/06 02:03:32;;;;;;;32.13;23.58;;;1.90;96.30;;;;;;5071351;28;20485;-78
2023/12/06 02:06:00;;;;;;;36.85;25.02;;;1.90;96.30;;;;;;5071320;28;20041;-78
2023/12/06 02:08:26;;;;;;;35.85;25.40;;;1.90;96.30;;;;;;5071394;28;20045;-79
2023/12/06 02:10:52;;;;;;;34.72;24.42;;;1.90;96.30;;;;;;5054802;28;20362;-77
2023/12/06 02:13:18;;;;;;;37.30;25.00;;;1.80;96.30;;;;;;5054604;28;20043;-77
2023/12/06 02:15:45;;;;;;;34.97;24.90;;;1.80;96.30;;;;;;5038057;28;20157;-80
2023/12/06 02:18:11;;;;;;;41.20;26.08;;;1.80;96.40;;;;;;5040598;28;20489;-79
2023/12/06 02:20:37;;;;;;;41.83;26.02;;;1.80;96.40;;;;;;5075045;28;20481;-79
2023/12/06 02:23:05;;;;;;;37.83;27.10;;;1.80;96.40;;;;;;5075188;28;20087;-79
2023/12/06 02:25:30;;;;;;;36.05;24.02;;;1.80;96.40;;;;;;5058240;28;20119;-78
2023/12/06 02:27:57;;;;;;;37.38;26.00;;;1.80;96.40;;;;;;5058297;28;20127;-76
2023/12/06 02:30:23;;;;;;;32.70;23.80;;;1.80;96.40;;;;;;5090843;28;20050;-78
2023/12/06 02:32:49;;;;;;;35.20;24.13;;;1.80;96.50;;;;;;5077920;28;20142;-77
2023/12/06 02:35:25;;;;;;;37.28;24.90;;;1.70;96.40;;;;;;5095074;28;20047;-78
2023/12/06 02:37:54;;;;;;;35.85;25.27;;;1.70;96.40;;;;;;5076570;28;20036;-78
2023/12/06 02:40:21;;;;;;;32.15;23.73;;;1.70;96.50;;;;;;5072978;28;20115;-79
2023/12/06 02:42:47;;;;;;;35.92;24.13;;;1.70;96.50;;;;;;5076042;28;20083;-78
2023/12/06 02:45:13;;;;;;;31.15;22.65;;;1.70;96.60;;;;;;5058106;28;20040;-79
2023/12/06 02:47:38;;;;;;;30.58;23.48;;;1.70;96.50;;;;;;5057972;28;20416;-76
2023/12/06 02:50:05;;;;;;;30.52;21.58;;;1.70;96.50;;;;;;5057694;28;20036;-79
2023/12/06 02:52:30;;;;;;;29.45;20.27;;;1.80;96.60;;;;;;5036876;28;20036;-77
2023/12/06 02:54:56;;;;;;;26.40;19.80;;;1.80;96.70;;;;;;5054705;28;20047;-79
2023/12/06 02:57:22;;;;;;;29.35;20.77;;;1.90;96.70;;;;;;5088019;28;20535;-79
2023/12/06 02:59:47;;;;;;;29.02;19.35;;;1.90;96.70;;;;;;5070915;28;20040;-78
2023/12/06 03:02:13;;;;;;;28.08;19.63;;;2.00;96.70;;;;;;5070996;28;20081;-79
2023/12/06 03:04:39;;;;;;;24.75;18.85;;;2.00;96.70;;;;;;5066976;28;20110;-79
2023/12/06 03:07:04;;;;;;;26.30;18.40;;;2.10;96.70;;;;;;5057475;28;20041;-78
2023/12/06 03:09:30;;;;;;;22.77;18.23;;;2.10;96.70;;;;;;5058035;28;20059;-77
2023/12/06 03:11:55;;;;;;;20.90;16.95;;;2.10;96.70;;;;;;5073985;28;20079;-78
2023/12/06 03:14:22;;;;;;;22.52;18.10;;;2.10;96.70;;;;;;5074248;28;20040;-78
2023/12/06 03:16:47;;;;;;;24.27;16.83;;;2.10;96.70;;;;;;5073924;28;20485;-78
2023/12/06 03:19:13;;;;;;;25.05;17.23;;;2.10;96.70;;;;;;5074015;28;20036;-80
2023/12/06 03:21:39;;;;;;;21.73;15.88;;;2.10;96.70;;;;;;5053190;28;20040;-78
2023/12/06 03:24:05;;;;;;;18.75;14.98;;;2.20;96.70;;;;;;5087326;28;20094;-78
2023/12/06 03:26:31;;;;;;;19.90;15.35;;;2.20;96.70;;;;;;5054368;28;20044;-79
2023/12/06 03:28:56;;;;;;;20.23;15.60;;;2.20;96.70;;;;;;5073487;28;20416;-76
2023/12/06 03:31:22;;;;;;;18.02;14.50;;;2.20;96.70;;;;;;5057039;28;20037;-78
2023/12/06 03:33:47;;;;;;;17.88;14.70;;;2.20;96.70;;;;;;5073490;28;20055;-77
2023/12/06 03:36:14;;;;;;;20.63;14.85;;;2.20;96.70;;;;;;5072330;28;20041;-79
2023/12/06 03:38:40;;;;;;;19.83;14.10;;;2.30;96.70;;;;;;5073417;28;20041;-78
2023/12/06 03:41:06;;;;;;;17.00;13.52;;;2.30;96.70;;;;;;5073579;28;20059;-79
2023/12/06 03:43:31;;;;;;;19.73;14.13;;;2.30;96.70;;;;;;5056935;28;20041;-79
2023/12/06 03:45:57;;;;;;;20.48;14.95;;;2.30;96.70;;;;;;5073489;28;20036;-77
2023/12/06 03:48:23;;;;;;;20.38;14.20;;;2.30;96.70;;;;;;5072963;28;20062;-79
2023/12/06 03:50:48;;;;;;;17.40;13.50;;;2.30;96.70;;;;;;5073444;28;20044;-80
2023/12/06 03:53:14;;;;;;;20.52;14.40;;;2.30;96.60;;;;;;5035690;28;20041;-78
2023/12/06 03:55:40;;;;;;;20.67;14.02;;;2.40;96.70;;;;;;5086750;28;20048;-77
2023/12/06 03:58:06;;;;;;;19.40;14.30;;;2.40;96.60;;;;;;5050083;28;20037;-80
2023/12/06 04:00:32;;;;;;;18.35;14.15;;;2.40;96.70;;;;;;5073152;28;20041;-78
2023/12/06 04:02:58;;;;;;;21.98;14.60;;;2.40;96.60;;;;;;5056349;28;20040;-79
2023/12/06 04:05:24;;;;;;;20.02;15.40;;;2.40;96.60;;;;;;5056423;28;20045;-77
2023/12/06 04:07:49;;;;;;;19.60;14.40;;;2.50;96.60;;;;;;5083562;28;20047;-78
2023/12/06 04:10:15;;;;;;;21.83;15.57;;;2.50;96.70;;;;;;5093215;28;20048;-78
2023/12/06 04:12:41;;;;;;;18.48;14.65;;;2.60;96.60;;;;;;5072691;28;20055;-78
2023/12/06 04:15:07;;;;;;;18.08;14.52;;;2.60;96.60;;;;;;5056247;28;20040;-79
2023/12/06 04:17:33;;;;;;;20.35;15.52;;;2.60;96.60;;;;;;5072531;28;20049;-77
2023/12/06 04:19:58;;;;;;;18.13;13.75;;;2.60;96.60;;;;;;5056236;28;20041;-79
2023/12/06 04:22:24;;;;;;;22.20;16.17;;;2.60;96.50;;;;;;5056289;28;20048;-79
2023/12/06 04:24:50;;;;;;;19.15;13.98;;;2.70;96.50;;;;;;5072667;28;20496;-80
2023/12/06 04:27:15;;;;;;;16.88;14.48;;;2.60;96.50;;;;;;5054761;28;20048;-78
2023/12/06 04:29:41;;;;;;;16.40;14.23;;;2.60;96.40;;;;;;5072903;28;20047;-78
2023/12/06 04:32:07;;;;;;;18.38;14.90;;;2.70;96.40;;;;;;5072349;28;20401;-79
2023/12/06 04:34:47;;;;;;;19.30;15.32;;;2.70;96.40;;;;;;5056080;28;20048;-79
2023/12/06 04:37:12;;;;;;;18.98;14.63;;;2.70;96.40;;;;;;5072233;28;20131;-77
2023/12/06 04:39:38;;;;;;;21.35;14.88;;;2.70;96.40;;;;;;5071508;28;20120;-78
2023/12/06 04:42:04;;;;;;;19.92;14.90;;;2.70;96.30;;;;;;5072612;28;20090;-79
2023/12/06 04:44:30;;;;;;;18.15;13.00;;;2.70;96.30;;;;;;5035262;28;20123;-80
2023/12/06 04:46:56;;;;;;;19.75;14.75;;;2.70;96.30;;;;;;5052380;28;20548;-79
2023/12/06 04:49:21;;;;;;;18.77;13.85;;;2.70;96.20;;;;;;5085843;28;20114;-78
2023/12/06 04:51:47;;;;;;;20.25;14.82;;;2.70;96.20;;;;;;5068798;28;20409;-78
2023/12/06 04:54:13;;;;;;;17.63;13.65;;;2.70;96.20;;;;;;5068581;28;20032;-78
2023/12/06 04:56:38;;;;;;;17.88;13.38;;;2.70;96.20;;;;;;5055366;28;20360;-79
2023/12/06 04:59:04;;;;;;;18.45;14.20;;;2.80;96.20;;;;;;5055696;28;20036;-79
2023/12/06 05:01:29;;;;;;;17.52;12.80;;;2.80;96.20;;;;;;5054232;28;20488;-79
2023/12/06 05:03:55;;;;;;;18.25;13.93;;;2.80;96.10;;;;;;5054277;28;20156;-79
2023/12/06 05:06:21;;;;;;;16.77;13.00;;;2.80;96.10;;;;;;5054365;28;20040;-78
2023/12/06 05:08:46;;;;;;;16.25;13.10;;;2.80;96.10;;;;;;5055320;28;20033;-80
2023/12/06 05:11:12;;;;;;;18.25;13.27;;;2.80;96.10;;;;;;5071818;28;20037;-79
2023/12/06 05:13:38;;;;;;;18.48;14.13;;;2.90;96.00;;;;;;5054979;28;20045;-78
2023/12/06 05:16:04;;;;;;;18.10;12.90;;;2.90;96.00;;;;;;5071816;28;20036;-79
2023/12/06 05:18:30;;;;;;;21.05;13.35;;;2.90;95.90;;;;;;5055225;28;20446;-79
2023/12/06 05:20:55;;;;;;;17.75;12.95;;;2.80;95.90;;;;;;5054002;28;20033;-76
2023/12/06 05:23:21;;;;;;;17.20;13.70;;;2.90;95.90;;;;;;5034748;28;20098;-76
2023/12/06 05:25:46;;;;;;;17.80;13.07;;;2.80;95.80;;;;;;5035179;28;20045;-78
2023/12/06 05:28:12;;;;;;;14.93;12.55;;;2.90;95.80;;;;;;5035167;28;20406;-77
2023/12/06 05:30:39;;;;;;;17.38;13.40;;;2.90;95.80;;;;;;5051603;28;20076;-78
2023/12/06 05:33:04;;;;;;;17.35;13.32;;;2.90;95.80;;;;;;5058326;28;20056;-76
2023/12/06 05:35:30;;;;;;;21.48;13.80;;;2.90;95.80;;;;;;5021766;28;20519;-78
2023/12/06 05:37:56;;;;;;;19.50;12.25;;;2.90;95.70;;;;;;5054755;28;20068;-79
2023/12/06 05:40:21;;;;;;;15.38;12.65;;;2.90;95.70;;;;;;5053807;28;20036;-79
2023/12/06 05:42:47;;;;;;;22.70;14.05;;;2.90;95.70;;;;;;5054554;28;20036;-77
2023/12/06 05:45:15;;;;;;;17.58;13.95;;;2.90;95.70;;;;;;5071510;28;20396;-79
2023/12/06 05:47:40;;;;;;;20.45;13.98;;;2.90;95.60;;;;;;5054872;28;20036;-80
2023/12/06 05:50:08;;;;;;;24.77;13.93;;;2.90;95.60;;;;;;5055101;28;20498;-79
2023/12/06 05:52:34;;;;;;;17.20;13.85;;;2.90;95.60;;;;;;5059253;28;20048;-79
2023/12/06 05:55:00;;;;;;;16.15;13.05;;;2.90;95.60;;;;;;5038087;28;20484;-76
2023/12/06 05:57:25;;;;;;;17.67;14.05;;;2.90;95.60;;;;;;5072318;28;20041;-77
2023/12/06 05:59:51;;;;;;;21.73;13.27;;;2.90;95.60;;;;;;5072341;28;20050;-78
2023/12/06 06:02:17;;;;;;;20.92;14.48;;;2.90;95.50;;;;;;5082243;28;20040;-76
2023/12/06 06:04:43;;;;;;;19.73;13.43;;;3.00;95.50;;;;;;5075388;28;20036;-79
2023/12/06 06:07:08;;;;;;;19.48;14.95;;;3.00;95.50;;;;;;5053378;28;20045;-78
2023/12/06 06:09:35;;;;;;;17.27;14.02;;;3.00;95.50;;;;;;5048838;28;20036;-77
2023/12/06 06:12:01;;;;;;;18.23;14.48;;;3.00;95.40;;;;;;5078746;28;20044;-79
2023/12/06 06:14:26;;;;;;;21.08;15.13;;;3.00;95.40;;;;;;5078849;28;20044;-79
2023/12/06 06:16:52;;;;;;;21.08;13.90;;;3.00;95.40;;;;;;5078457;28;20092;-77
2023/12/06 06:19:18;;;;;;;17.92;13.77;;;3.00;95.30;;;;;;5058621;28;20048;-77
2023/12/06 06:21:43;;;;;;;20.63;15.52;;;3.00;95.30;;;;;;5073461;28;20028;-79
2023/12/06 06:24:09;;;;;;;19.33;14.10;;;3.00;95.20;;;;;;5058372;28;20036;-78
2023/12/06 06:26:35;;;;;;;19.42;13.13;;;3.00;95.20;;;;;;5075007;28;20119;-77
2023/12/06 06:29:00;;;;;;;20.05;13.43;;;3.10;95.10;;;;;;5058268;28;20119;-78
2023/12/06 06:31:26;;;;;;;18.73;12.32;;;3.00;95.10;;;;;;5095350;28;20489;-81
2023/12/06 06:33:52;;;;;;;18.52;13.57;;;3.10;95.10;;;;;;5094915;28;20071;-78
2023/12/06 06:36:18;;;;;;;18.13;13.10;;;3.00;95.10;;;;;;5078172;28;20503;-79
2023/12/06 06:38:43;;;;;;;15.55;11.93;;;3.10;95.00;;;;;;5060122;28;20047;-78
2023/12/06 06:41:09;;;;;;;17.73;12.65;;;3.10;95.00;;;;;;5092329;28;20035;-78
2023/12/06 06:43:35;;;;;;;15.40;12.48;;;3.10;94.90;;;;;;5094852;28;20047;-78
2023/12/06 06:46:02;;;;;;;19.52;12.98;;;3.10;94.90;;;;;;5094902;28;20054;-80
2023/12/06 06:48:27;;;;;;;18.13;13.27;;;3.10;94.90;;;;;;5078280;28;20361;-78
2023/12/06 06:50:53;;;;;;;18.92;13.55;;;3.10;94.80;;;;;;5078745;28;20047;-78
2023/12/06 06:53:19;;;;;;;20.48;12.95;;;3.10;94.70;;;;;;5056871;28;20048;-79
2023/12/06 06:55:44;;;;;;;16.65;13.35;;;3.10;94.70;;;;;;5085414;28;20034;-78
2023/12/06 06:58:10;;;;;;;18.35;14.38;;;3.10;94.60;;;;;;5083792;28;20044;-78
2023/12/06 07:00:36;;;;;;;17.13;13.30;;;3.10;94.60;;;;;;5080358;28;20037;-77
2023/12/06 07:03:01;;;;;;;16.73;13.02;;;3.10;94.60;;;;;;5083956;28;20480;-78
2023/12/06 07:05:27;;;;;;;16.80;13.85;;;3.10;94.50;;;;;;5049302;28;20032;-78
2023/12/06 07:07:53;;;;;;;15.65;14.00;;;3.10;94.50;;;;;;5079930;28;20057;-79
2023/12/06 07:10:20;;;;;;;17.33;13.85;;;3.10;94.50;;;;;;5083899;28;20090;-79
2023/12/06 07:12:45;;;;;;;19.23;14.57;;;3.10;94.60;;;;;;5067705;28;20040;-78
2023/12/06 07:15:14;;;;;;;17.75;12.60;;;3.10;94.50;;;;;;5068118;28;20146;-78
2023/12/06 07:17:43;;;;;;;16.70;12.82;;;3.10;94.50;;;;;;5080334;28;20541;-79
2023/12/06 07:20:11;;;;;;;17.58;13.43;;;3.10;94.50;;;;;;5064332;28;20039;-78
2023/12/06 07:22:37;;;;;;;15.45;13.25;;;3.10;94.50;;;;;;5106072;28;20496;-78
2023/12/06 07:25:06;;;;;;;19.80;16.38;;;3.10;94.40;;;;;;5082192;28;20044;-77
2023/12/06 07:27:32;;;;;;;17.52;15.25;;;3.10;94.40;;;;;;5077914;28;20032;-79
2023/12/06 07:29:57;;;;;;;21.67;14.00;;;3.10;94.40;;;;;;5088382;28;20500;-82
2023/12/06 07:32:23;;;;;;;19.13;14.02;;;3.10;94.40;;;;;;5060107;28;20531;-78
2023/12/06 07:34:49;;;;;;;20.40;15.60;;;3.10;94.30;;;;;;5071329;28;20044;-77
2023/12/06 07:37:14;;;;;;;24.58;16.70;;;3.10;94.40;;;;;;5060791;28;20110;-79
2023/12/06 07:39:40;;;;;;;19.08;14.45;;;3.10;94.40;;;;;;5062107;28;20037;-79
2023/12/06 07:42:06;;;;;;;19.58;13.52;;;3.20;94.40;;;;;;5063106;28;20040;-79
2023/12/06 07:44:32;;;;;;;18.25;13.32;;;3.20;94.40;;;;;;5066781;28;20400;-81
2023/12/06 07:46:57;;;;;;;18.05;13.95;;;3.20;94.30;;;;;;5093003;28;20046;-79
2023/12/06 07:49:23;;;;;;;20.98;13.20;;;3.20;94.30;;;;;;5077266;28;20079;-78
2023/12/06 07:51:49;;;;;;;17.70;12.95;;;3.20;94.20;;;;;;5077398;28;20063;-80
2023/12/06 07:54:16;;;;;;;14.65;12.13;;;3.20;94.20;;;;;;5094247;28;20043;-81
2023/12/06 07:56:42;;;;;;;15.35;12.95;;;3.20;94.20;;;;;;5060696;28;20420;-79
2023/12/06 07:59:08;;;;;;;16.58;13.40;;;3.20;94.20;;;;;;5088567;28;20074;-78
2023/12/06 08:01:34;;;;;;;16.67;13.45;;;3.20;94.20;;;;;;5048596;28;20035;-78
2023/12/06 08:04:00;;;;;;;16.67;12.95;;;3.20;94.20;;;;;;5057243;28;20067;-79
2023/12/06 08:06:27;;;;;;;20.23;13.40;;;3.20;94.30;;;;;;5057183;28;20048;-80
2023/12/06 08:08:53;;;;;;;20.35;12.98;;;3.20;94.30;;;;;;5049720;28;20037;-79
2023/12/06 08:11:22;;;;;;;18.95;12.43;;;3.20;94.30;;;;;;5056377;28;20040;-80
2023/12/06 08:13:48;;;;;;;17.02;12.63;;;3.20;94.30;;;;;;5073121;28;20097;-80
2023/12/06 08:16:13;;;;;;;19.08;12.25;;;3.20;94.30;;;;;;5043030;28;20041;-80
2023/12/06 08:18:39;;;;;;;17.08;13.48;;;3.20;94.40;;;;;;5020247;28;20044;-76
2023/12/06 08:21:08;;;;;;;16.42;12.80;;;3.20;94.40;;;;;;5053390;28;20033;-80
2023/12/06 08:23:34;;;;;;;19.92;13.85;;;3.30;94.40;;;;;;5033481;28;20074;-79
2023/12/06 08:26:00;;;;;;;15.38;12.98;;;3.30;94.40;;;;;;5075564;28;20052;-79
2023/12/06 08:28:26;;;;;;;16.35;13.25;;;3.30;94.40;;;;;;5076361;28;20036;-79
2023/12/06 08:30:52;;;;;;;18.90;13.38;;;3.30;94.30;;;;;;5074151;28;20560;-80
2023/12/06 08:33:19;;;;;;;17.45;11.10;;;3.40;94.30;;;;;;5039629;28;20075;-79
2023/12/06 08:35:45;;;;;;;16.50;11.88;;;3.40;94.20;;;;;;5068083;28;20051;-80
2023/12/06 08:38:11;;;;;;;15.63;11.88;;;3.40;94.10;;;;;;5055693;28;20565;-80
2023/12/06 08:40:37;;;;;;;18.83;11.82;;;3.40;94.00;;;;;;5068660;28;20052;-80
2023/12/06 08:43:03;;;;;;;15.30;12.25;;;3.40;94.10;;;;;;5035748;28;20044;-79
2023/12/06 08:45:29;;;;;;;17.27;11.40;;;3.40;94.10;;;;;;5052497;28;20056;-79
2023/12/06 08:47:54;;;;;;;14.93;10.95;;;3.40;94.10;;;;;;5035801;28;20045;-82
2023/12/06 08:50:21;;;;;;;14.18;10.48;;;3.40;94.10;;;;;;5046607;28;20036;-80
2023/12/06 08:52:46;;;;;;;14.85;10.70;;;3.40;94.10;;;;;;5050234;28;20044;-80
2023/12/06 08:55:12;;;;;;;19.95;11.80;;;3.40;94.20;;;;;;5055762;28;20082;-78
2023/12/06 08:57:38;;;;;;;15.18;9.82;;;3.40;94.20;;;;;;5072708;28;20547;-80
2023/12/06 09:00:07;;;;;;;14.55;9.65;;;3.40;94.20;;;;;;5035644;28;20055;-81
2023/12/06 09:02:37;;;;;;;12.68;9.38;;;3.40;94.20;;;;;;5052246;28;20045;-80
2023/12/06 09:05:02;;;;;;;12.82;9.85;;;3.40;94.30;;;;;;5035826;28;20397;-79
2023/12/06 09:07:28;;;;;;;14.25;9.48;;;3.40;94.30;;;;;;5051495;28;20040;-78
2023/12/06 09:09:54;;;;;;;13.90;9.52;;;3.40;94.30;;;;;;5054356;28;20044;-78
2023/12/06 09:12:21;;;;;;;18.17;9.48;;;3.50;94.40;;;;;;5055337;28;20047;-78
2023/12/06 09:14:46;;;;;;;15.48;9.98;;;3.50;94.30;;;;;;5072481;28;20094;-81
2023/12/06 09:17:12;;;;;;;13.77;9.90;;;3.40;94.40;;;;;;5072577;28;20032;-78
2023/12/06 09:19:38;;;;;;;12.15;9.35;;;3.50;94.40;;;;;;5055270;28;20039;-79
2023/12/06 09:22:05;;;;;;;14.00;10.45;;;3.40;94.50;;;;;;5071737;28;20451;-78
2023/12/06 09:24:31;;;;;;;12.73;9.90;;;3.50;94.50;;;;;;5072787;28;20044;-79
2023/12/06 09:26:57;;;;;;;13.93;10.32;;;3.40;94.50;;;;;;5092482;28;20051;-81
2023/12/06 09:29:22;;;;;;;13.45;9.23;;;3.40;94.60;;;;;;5076802;28;20044;-82
2023/12/06 09:31:48;;;;;;;14.10;9.38;;;3.50;94.60;;;;;;5092177;28;20039;-79
2023/12/06 09:34:14;;;;;;;14.38;9.80;;;3.40;94.60;;;;;;5090414;28;20067;-77
2023/12/06 09:36:39;;;;;;;14.55;9.48;;;3.40;94.60;;;;;;5092630;28;20059;-77
2023/12/06 09:39:05;;;;;;;15.00;9.45;;;3.50;94.70;;;;;;5075020;28;20366;-78
2023/12/06 09:41:32;;;;;;;13.60;9.13;;;3.50;94.70;;;;;;5092808;28;20105;-78
2023/12/06 09:44:02;;;;;;;11.57;10.07;;;3.50;94.70;;;;;;5079594;28;20045;-78
2023/12/06 09:46:28;;;;;;;12.25;8.68;;;3.50;94.70;;;;;;5039695;28;20037;-77
2023/12/06 09:48:53;;;;;;;12.80;8.63;;;3.60;94.80;;;;;;5072537;28;20086;-78
2023/12/06 09:51:20;;;;;;;12.32;9.90;;;3.60;94.80;;;;;;5056230;28;20052;-78
2023/12/06 09:53:46;;;;;;;18.88;9.93;;;3.60;94.80;;;;;;5056184;28;20075;-79
2023/12/06 09:56:13;;;;;;;12.63;9.90;;;3.60;94.80;;;;;;5073162;28;20037;-79
2023/12/06 09:58:40;;;;;;;13.25;11.02;;;3.60;94.80;;;;;;5074369;28;20075;-78
2023/12/06 10:01:06;;;;;;;14.75;10.82;;;3.60;94.80;;;;;;5041007;28;20036;-80
2023/12/06 10:03:32;;;;;;;12.70;11.07;;;3.70;94.80;;;;;;5074386;28;20404;-77
2023/12/06 10:06:03;;;;;;;15.63;10.35;;;3.60;94.80;;;;;;5057992;28;20040;-79
2023/12/06 10:08:31;;;;;;;15.13;10.18;;;3.60;94.80;;;;;;5057807;28;20072;-77
2023/12/06 10:11:08;;;;;;;13.75;10.68;;;3.70;94.90;;;;;;5059222;28;20052;-78
2023/12/06 10:13:38;;;;;;;13.30;10.05;;;3.70;94.90;;;;;;5041280;28;20047;-77
2023/12/06 10:16:15;;;;;;;12.75;10.50;;;3.70;94.90;;;;;;5058906;28;20400;-77
2023/12/06 10:18:41;;;;;;;13.85;9.18;;;3.70;94.90;;;;;;5075106;28;20040;-79
2023/12/06 10:21:07;;;;;;;14.57;9.82;;;3.80;94.90;;;;;;5058179;28;20136;-80
2023/12/06 10:23:33;;;;;;;13.38;10.05;;;3.80;94.90;;;;;;5041385;28;20396;-78
2023/12/06 10:25:59;;;;;;;11.00;9.77;;;3.80;94.90;;;;;;5057961;28;20044;-78
2023/12/06 10:28:25;;;;;;;34.20;27.42;;;3.80;94.90;;;;;;5041760;28;20094;-78
2023/12/06 10:31:03;;;;;;;27.73;22.60;;;3.80;94.90;;;;;;5058423;28;20064;-78
2023/12/06 10:33:30;;;;;;;21.45;17.48;;;3.80;94.90;;;;;;5037706;28;20080;-78
2023/12/06 10:36:00;;;;;;;18.88;14.45;;;3.90;94.90;;;;;;5056629;28;20037;-77
2023/12/06 10:38:28;;;;;;;16.27;14.57;;;3.90;95.00;;;;;;5060020;28;20033;-77
2023/12/06 10:41:00;;;;;;;17.25;12.85;;;3.90;95.00;;;;;;5079769;28;20508;-78
2023/12/06 10:43:30;;;;;;;14.40;11.63;;;3.90;95.00;;;;;;5064086;28;20046;-79
2023/12/06 10:45:57;;;;;;;12.90;10.40;;;3.90;95.00;;;;;;5063204;28;20043;-78
2023/12/06 10:48:24;;;;;;;14.95;10.38;;;3.90;95.00;;;;;;5063439;28;20099;-78
2023/12/06 10:50:51;;;;;;;15.82;11.55;;;3.90;95.00;;;;;;5062859;28;20123;-78
2023/12/06 10:53:17;;;;;;;16.08;11.20;;;3.90;95.10;;;;;;5079353;28;20040;-80
2023/12/06 10:55:45;;;;;;;13.45;11.18;;;3.90;95.10;;;;;;5045695;28;20036;-79
2023/12/06 10:58:13;;;;;;;15.02;10.55;;;3.90;95.10;;;;;;5045188;28;20100;-79
2023/12/06 11:00:39;;;;;;;14.05;11.13;;;4.00;95.10;;;;;;5061136;28;20044;-78
2023/12/06 11:03:05;;;;;;;15.48;11.50;;;4.00;95.10;;;;;;5043041;28;20065;-81
2023/12/06 11:05:37;;;;;;;14.35;10.70;;;4.00;95.10;;;;;;5043792;28;20075;-77
2023/12/06 11:08:31;;;;;;;14.07;11.55;;;4.00;95.10;;;;;;5059782;28;20127;-79
2023/12/06 11:11:31;;;;;;;12.07;10.70;;;4.00;95.10;;;;;;5076515;28;20040;-81
2023/12/06 11:14:38;;;;;;;13.77;10.35;;;4.10;95.10;;;;;;5076483;28;20044;-79
2023/12/06 11:17:16;;;;;;;14.82;10.60;;;4.10;95.10;;;;;;5056835;28;20087;-79
2023/12/06 11:19:42;;;;;;;14.82;11.38;;;4.10;95.10;;;;;;5057718;28;20386;-80
2023/12/06 11:22:08;;;;;;;11.77;9.85;;;4.10;95.00;;;;;;5041512;28;20393;-79
2023/12/06 11:24:37;;;;;;;15.82;10.52;;;4.10;95.00;;;;;;5039857;28;20041;-78
2023/12/06 11:27:03;;;;;;;12.30;9.95;;;4.10;95.10;;;;;;5060251;28;20106;-78
2023/12/06 11:29:30;;;;;;;16.98;11.15;;;4.10;95.10;;;;;;5060949;28;20059;-78
2023/12/06 11:31:58;;;;;;;12.10;9.32;;;4.10;95.00;;;;;;5060447;28;20045;-78
2023/12/06 11:34:36;;;;;;;11.60;9.82;;;4.10;95.00;;;;;;5059520;28;20127;-79
2023/12/06 11:37:07;;;;;;;13.05;9.25;;;4.10;95.00;;;;;;5060285;28;20037;-79
2023/12/06 11:39:33;;;;;;;13.55;9.52;;;4.20;95.00;;;;;;5076774;28;20412;-78
2023/12/06 11:41:59;;;;;;;14.48;9.13;;;4.10;94.90;;;;;;5043446;28;20124;-78
2023/12/06 11:44:25;;;;;;;13.93;10.90;;;4.10;94.80;;;;;;5060314;28;20071;-79
2023/12/06 11:46:52;;;;;;;14.20;10.45;;;4.20;94.80;;;;;;5026713;28;20098;-78
2023/12/06 11:49:23;;;;;;;12.82;9.60;;;4.20;94.80;;;;;;5059292;28;20052;-79
2023/12/06 11:52:10;;;;;;;11.13;8.93;;;4.20;94.80;;;;;;5059701;28;20032;-79
2023/12/06 11:54:44;;;;;;;13.23;9.20;;;4.10;94.80;;;;;;5028568;28;20043;-80
2023/12/06 11:57:11;;;;;;;11.65;8.95;;;4.10;94.70;;;;;;5060514;28;20123;-79
2023/12/06 11:59:39;;;;;;;12.60;8.80;;;4.10;94.60;;;;;;5044636;28;20102;-77
2023/12/06 12:02:06;;;;;;;10.77;7.47;;;4.10;94.60;;;;;;5061042;28;20043;-79
2023/12/06 12:04:34;;;;;;;13.27;8.30;;;4.10;94.50;;;;;;5077733;28;20097;-77
2023/12/06 12:07:00;;;;;;;7.63;6.55;;;4.10;94.40;;;;;;5078538;28;20437;-79
2023/12/06 12:09:26;;;;;;;9.40;6.78;;;4.10;94.30;;;;;;5061199;28;20044;-79
2023/12/06 12:11:52;;;;;;;12.82;7.90;;;4.20;94.00;;;;;;5077097;28;20044;-79
2023/12/06 12:14:18;;;;;;;11.65;7.72;;;4.20;93.80;;;;;;5056056;28;20044;-80
2023/12/06 12:16:44;;;;;;;10.50;6.60;;;4.20;93.60;;;;;;5080128;28;20123;-80
2023/12/06 12:19:11;;;;;;;8.15;7.15;;;4.30;93.40;;;;;;5080142;28;20032;-79
2023/12/06 12:21:37;;;;;;;7.38;6.57;;;4.30;93.30;;;;;;5080143;28;20036;-79
2023/12/06 12:24:03;;;;;;;8.55;7.65;;;4.30;93.20;;;;;;5085701;28;20040;-78
2023/12/06 12:26:30;;;;;;;12.05;9.13;;;4.30;93.20;;;;;;5060021;28;20408;-77
2023/12/06 12:28:56;;;;;;;13.02;9.80;;;4.30;93.20;;;;;;5077048;28;20080;-78
2023/12/06 12:31:28;;;;;;;15.88;9.80;;;4.30;93.30;;;;;;5076244;28;20048;-78
2023/12/06 12:33:55;;;;;;;13.27;9.57;;;4.30;93.40;;;;;;5076578;28;20060;-78
2023/12/06 12:36:21;;;;;;;11.98;9.40;;;4.30;93.40;;;;;;5060113;28;20116;-79